Time;durP1;ratioP1;P1;durP2;ratioP2;P2;SDS_P1;SDS_P2;PMS_P1;PMS_P2;Temp;Humidity;BMP_temperature;BMP_pressure;BME280_temperature;BME280_humidity;BME280_pressure;Samples;Min_cycle;Max_cycle;Signal;HPM_P1;HPM_P2
2022/08/20 00:01:45;;;;;;;0.38;0.38;;;19.60;99.90;;;;;;4900719;29;20132;-90
2022/08/20 00:04:12;;;;;;;0.70;0.63;;;19.50;99.90;;;;;;4871068;29;20048;-90
2022/08/20 00:06:39;;;;;;;0.75;0.50;;;19.50;99.90;;;;;;4901921;29;20040;-90
2022/08/20 00:09:05;;;;;;;0.65;0.40;;;19.50;99.90;;;;;;4885940;29;20044;-90
2022/08/20 00:11:32;;;;;;;0.50;0.40;;;19.50;99.90;;;;;;4886192;29;20052;-90
2022/08/20 00:14:01;;;;;;;0.28;0.28;;;19.50;99.90;;;;;;4885980;29;20060;-90
2022/08/20 00:16:31;;;;;;;0.38;0.38;;;19.50;99.90;;;;;;4901877;29;20075;-90
2022/08/20 00:18:59;;;;;;;0.52;0.35;;;19.50;99.90;;;;;;4885705;29;20056;-90
2022/08/20 00:21:25;;;;;;;1.05;0.30;;;19.40;99.90;;;;;;4885429;29;20115;-90
2022/08/20 00:23:54;;;;;;;0.50;0.40;;;19.50;99.90;;;;;;4885682;29;20307;-90
2022/08/20 00:26:21;;;;;;;1.08;0.65;;;19.40;99.90;;;;;;4885951;29;20170;-90
2022/08/20 00:28:47;;;;;;;0.57;0.57;;;19.50;99.90;;;;;;4899178;29;20055;-91
2022/08/20 00:31:17;;;;;;;0.52;0.40;;;19.40;99.90;;;;;;4901465;29;20114;-90
2022/08/20 00:33:43;;;;;;;0.20;0.20;;;19.40;99.90;;;;;;4885999;29;20406;-90
2022/08/20 00:36:11;;;;;;;0.88;0.30;;;19.40;99.90;;;;;;4870013;29;20158;-90
2022/08/20 00:38:41;;;;;;;0.47;0.40;;;19.30;99.90;;;;;;4901221;29;20052;-90
2022/08/20 00:41:12;;;;;;;0.60;0.50;;;19.30;99.90;;;;;;4885448;29;20054;-90
2022/08/20 00:43:44;;;;;;;0.77;0.60;;;19.30;99.90;;;;;;4901386;29;20052;-90
2022/08/20 00:46:12;;;;;;;0.20;0.20;;;19.20;99.90;;;;;;4885181;29;20467;-90
2022/08/20 00:48:40;;;;;;;1.30;0.50;;;19.20;99.90;;;;;;4901313;29;20056;-90
2022/08/20 00:51:13;;;;;;;0.73;0.73;;;19.20;99.90;;;;;;4900821;29;20058;-90
2022/08/20 00:53:40;;;;;;;0.90;0.60;;;19.20;99.90;;;;;;4885813;29;20056;-90
2022/08/20 00:56:07;;;;;;;;;;;19.10;99.90;;;;;;4901179;29;20384;-90
2022/08/20 00:58:34;;;;;;;0.70;0.55;;;19.70;99.90;;;;;;4899611;29;19930;-90
2022/08/20 01:01:00;;;;;;;0.45;0.45;;;19.10;99.90;;;;;;4900327;29;20040;-90
2022/08/20 01:03:26;;;;;;;0.50;0.40;;;19.10;99.90;;;;;;4885206;29;20467;-90
2022/08/20 01:05:52;;;;;;;0.90;0.63;;;19.10;99.90;;;;;;4900426;29;20147;-90
2022/08/20 01:08:21;;;;;;;0.22;0.22;;;19.10;99.90;;;;;;4901023;29;20044;-90
2022/08/20 01:10:52;;;;;;;0.43;0.40;;;19.00;99.90;;;;;;4885334;29;20048;-90
2022/08/20 01:13:23;;;;;;;0.98;0.22;;;19.00;99.90;;;;;;4885440;29;20047;-90
2022/08/20 01:15:53;;;;;;;0.40;0.40;;;19.00;99.90;;;;;;4885152;29;20127;-90
2022/08/20 01:18:24;;;;;;;0.38;0.30;;;19.00;99.90;;;;;;4885020;29;20052;-90
2022/08/20 01:20:57;;;;;;;1.48;0.68;;;19.00;99.90;;;;;;4900743;29;20411;-89
2022/08/20 01:23:42;;;;;;;0.30;0.13;;;19.00;99.90;;;;;;4900557;29;20484;-90
2022/08/20 01:26:30;;;;;;;0.52;0.40;;;18.90;99.90;;;;;;4900140;29;20059;-90
2022/08/20 01:29:00;;;;;;;0.40;0.40;;;18.90;99.90;;;;;;4883513;29;20107;-90
2022/08/20 01:31:30;;;;;;;0.68;0.43;;;18.90;99.90;;;;;;4884490;29;20059;-90
2022/08/20 01:33:59;;;;;;;0.52;0.28;;;18.80;99.90;;;;;;4899913;29;20052;-90
2022/08/20 01:36:32;;;;;;;0.10;0.10;;;18.80;99.90;;;;;;4917059;29;20079;-90
2022/08/20 01:38:59;;;;;;;0.00;0.00;;;18.80;99.90;;;;;;4900030;29;20052;-90
2022/08/20 01:41:40;;;;;;;0.22;0.20;;;18.80;99.90;;;;;;4900307;29;20102;-90
2022/08/20 01:44:07;;;;;;;0.30;0.30;;;18.80;99.90;;;;;;4884503;29;20048;-90
2022/08/20 01:46:37;;;;;;;0.55;0.38;;;18.70;99.90;;;;;;4884825;29;20165;-89
2022/08/20 01:49:13;;;;;;;0.85;0.40;;;18.70;99.90;;;;;;4884222;29;20138;-90
2022/08/20 01:51:39;;;;;;;0.63;0.47;;;18.70;99.90;;;;;;4900079;29;20048;-90
2022/08/20 01:54:06;;;;;;;0.32;0.22;;;18.70;99.90;;;;;;4899774;29;20052;-90
2022/08/20 01:56:33;;;;;;;0.30;0.30;;;18.60;99.90;;;;;;4884688;29;20574;-90
2022/08/20 01:59:04;;;;;;;0.45;0.40;;;18.60;99.90;;;;;;4898474;29;20055;-89
2022/08/20 02:01:39;;;;;;;0.52;0.40;;;18.50;99.90;;;;;;4884509;29;20071;-90
2022/08/20 02:04:08;;;;;;;0.50;0.50;;;18.50;99.90;;;;;;4899603;29;20095;-90
2022/08/20 02:06:39;;;;;;;1.13;0.57;;;18.50;99.90;;;;;;4884364;29;20055;-90
2022/08/20 02:09:06;;;;;;;0.38;0.30;;;18.40;99.90;;;;;;4899719;29;20052;-90
2022/08/20 02:11:33;;;;;;;0.80;0.32;;;18.50;99.90;;;;;;4884097;29;20068;-90
2022/08/20 02:13:59;;;;;;;;;;;18.40;99.90;;;;;;4884377;29;20072;-90
2022/08/20 02:16:35;;;;;;;0.73;0.40;;;18.50;99.90;;;;;;4899756;29;19923;-90
2022/08/20 02:19:08;;;;;;;0.85;0.38;;;18.40;99.90;;;;;;4883743;29;20052;-90
2022/08/20 02:21:36;;;;;;;0.68;0.68;;;18.40;99.90;;;;;;4899979;29;20409;-90
2022/08/20 02:24:03;;;;;;;0.30;0.20;;;18.40;99.90;;;;;;4899160;29;20048;-89
2022/08/20 02:26:30;;;;;;;0.73;0.40;;;18.40;99.90;;;;;;4899537;29;20052;-90
2022/08/20 02:28:58;;;;;;;0.70;0.38;;;18.30;99.90;;;;;;4882721;29;20059;-90
2022/08/20 02:31:24;;;;;;;0.30;0.20;;;18.30;99.90;;;;;;4882480;29;20066;-90
2022/08/20 02:33:50;;;;;;;0.38;0.20;;;18.20;99.90;;;;;;4899698;29;20135;-89
2022/08/20 02:36:17;;;;;;;;;;;18.20;99.90;;;;;;4884080;29;20048;-89
2022/08/20 02:38:43;;;;;;;0.20;0.20;;;18.20;99.90;;;;;;4899510;29;19927;-90
2022/08/20 02:41:11;;;;;;;0.47;0.30;;;18.20;99.90;;;;;;4898733;29;20055;-90
2022/08/20 02:43:37;;;;;;;0.52;0.30;;;18.20;99.90;;;;;;4899301;29;20052;-89
2022/08/20 02:46:05;;;;;;;0.57;0.45;;;18.20;99.90;;;;;;4867400;29;20059;-91
2022/08/20 02:48:32;;;;;;;0.30;0.30;;;18.20;99.90;;;;;;4899594;29;20415;-90
2022/08/20 02:51:04;;;;;;;0.73;0.32;;;18.20;99.90;;;;;;4899458;29;20048;-89
2022/08/20 02:53:33;;;;;;;0.60;0.50;;;18.10;99.90;;;;;;4899351;29;20052;-90
2022/08/20 02:55:59;;;;;;;0.10;0.10;;;18.10;99.90;;;;;;4883673;29;20048;-90
2022/08/20 02:58:25;;;;;;;1.42;0.50;;;18.00;99.90;;;;;;4882268;29;20171;-89
2022/08/20 03:00:51;;;;;;;0.30;0.30;;;18.00;99.90;;;;;;4898316;29;20395;-90
2022/08/20 03:03:21;;;;;;;;;;;17.90;99.90;;;;;;4899421;29;20134;-90
2022/08/20 03:05:48;;;;;;;1.00;0.40;;;17.90;99.90;;;;;;4899250;29;20266;-90
2022/08/20 03:08:14;;;;;;;0.45;0.30;;;17.90;99.90;;;;;;4899131;29;20048;-89
2022/08/20 03:10:42;;;;;;;0.43;0.40;;;17.90;99.90;;;;;;4899185;29;20115;-89
2022/08/20 03:13:12;;;;;;;1.05;0.40;;;17.90;99.90;;;;;;4898964;29;20411;-90
2022/08/20 03:15:40;;;;;;;0.60;0.13;;;17.90;99.90;;;;;;4899167;29;20542;-89
2022/08/20 03:18:06;;;;;;;0.20;0.20;;;17.90;99.90;;;;;;4883409;29;20439;-90
2022/08/20 03:20:32;;;;;;;0.63;0.30;;;17.90;99.90;;;;;;4899016;29;20051;-89
2022/08/20 03:22:58;;;;;;;0.50;0.50;;;17.90;99.90;;;;;;4899217;29;20127;-89
2022/08/20 03:25:25;;;;;;;0.65;0.40;;;17.90;99.90;;;;;;4898785;29;20071;-89
2022/08/20 03:27:50;;;;;;;;;;;17.90;99.90;;;;;;4898837;29;20050;-89
2022/08/20 03:30:18;;;;;;;0.40;0.30;;;17.80;99.90;;;;;;4913758;29;20009;-89
2022/08/20 03:32:44;;;;;;;0.47;0.47;;;17.80;99.90;;;;;;4898551;29;20056;-89
2022/08/20 03:35:11;;;;;;;;;;;17.80;99.90;;;;;;4883461;29;20134;-89
2022/08/20 03:37:37;;;;;;;0.10;0.10;;;17.80;99.90;;;;;;4914827;29;19974;-89
2022/08/20 03:40:07;;;;;;;0.40;0.30;;;17.80;99.90;;;;;;4882936;29;20084;-89
2022/08/20 03:42:33;;;;;;;0.10;0.10;;;17.70;99.90;;;;;;4898812;29;20514;-89
2022/08/20 03:44:59;;;;;;;0.30;0.22;;;17.70;99.90;;;;;;4867836;29;20056;-89
2022/08/20 03:47:26;;;;;;;0.45;0.20;;;17.60;99.90;;;;;;4883167;29;20481;-89
2022/08/20 03:49:51;;;;;;;0.77;0.22;;;17.60;99.90;;;;;;4883394;29;20131;-89
2022/08/20 03:52:17;;;;;;;0.65;0.32;;;17.60;99.90;;;;;;4882956;29;20052;-89
2022/08/20 03:54:44;;;;;;;0.77;0.40;;;17.60;99.90;;;;;;4898792;29;20088;-89
2022/08/20 03:57:15;;;;;;;0.20;0.20;;;17.60;99.90;;;;;;4883887;29;20296;-90
2022/08/20 03:59:43;;;;;;;1.00;0.30;;;17.60;99.90;;;;;;4884592;29;20048;-89
2022/08/20 04:02:13;;;;;;;1.05;0.50;;;17.60;99.90;;;;;;4902449;29;20044;-89
2022/08/20 04:04:40;;;;;;;0.25;0.25;;;17.50;99.90;;;;;;4902042;29;20044;-89
2022/08/20 04:07:24;;;;;;;0.82;0.40;;;17.50;99.90;;;;;;4901850;29;20135;-89
2022/08/20 04:09:55;;;;;;;0.47;0.28;;;17.50;99.90;;;;;;4901860;29;20063;-89
2022/08/20 04:12:22;;;;;;;0.20;0.15;;;17.50;99.90;;;;;;4901707;29;20056;-89
2022/08/20 04:14:48;;;;;;;0.22;0.17;;;17.50;99.90;;;;;;4901715;29;20052;-89
2022/08/20 04:17:15;;;;;;;;;;;17.50;99.90;;;;;;4901841;29;20056;-90
2022/08/20 04:19:41;;;;;;;0.30;0.30;;;17.40;99.90;;;;;;4885826;29;19923;-89
2022/08/20 04:22:07;;;;;;;0.30;0.30;;;17.40;99.90;;;;;;4901833;29;20139;-89
2022/08/20 04:24:33;;;;;;;1.00;0.50;;;17.40;99.90;;;;;;4901473;29;20391;-89
2022/08/20 04:27:01;;;;;;;;;;;17.40;99.90;;;;;;4902134;29;20048;-89
2022/08/20 04:29:27;;;;;;;0.40;0.32;;;17.40;99.90;;;;;;4868857;29;19923;-89
2022/08/20 04:31:54;;;;;;;;;;;17.40;99.90;;;;;;4900544;29;20060;-89
2022/08/20 04:34:20;;;;;;;0.57;0.40;;;17.30;99.90;;;;;;4900930;29;19970;-89
2022/08/20 04:36:46;;;;;;;0.90;0.30;;;17.30;99.90;;;;;;4886061;29;20327;-89
2022/08/20 04:39:14;;;;;;;0.45;0.45;;;17.30;99.90;;;;;;4901414;29;20491;-89
2022/08/20 04:41:40;;;;;;;0.28;0.10;;;17.20;99.90;;;;;;4901245;29;20059;-89
2022/08/20 04:44:07;;;;;;;0.60;0.50;;;17.20;99.90;;;;;;4885806;29;20159;-88
2022/08/20 04:46:33;;;;;;;0.90;0.40;;;17.10;99.90;;;;;;4885252;29;20123;-89
2022/08/20 04:49:03;;;;;;;0.30;0.30;;;17.10;99.90;;;;;;4885368;29;20048;-89
2022/08/20 04:51:28;;;;;;;0.30;0.22;;;17.10;99.90;;;;;;4901063;29;20380;-89
2022/08/20 04:53:56;;;;;;;0.77;0.20;;;17.10;99.90;;;;;;4885598;29;20108;-89
2022/08/20 04:56:25;;;;;;;0.57;0.22;;;17.10;99.90;;;;;;4900702;29;20537;-89
2022/08/20 04:58:52;;;;;;;0.45;0.35;;;17.20;99.90;;;;;;4900087;29;20052;-88
2022/08/20 05:01:18;;;;;;;0.30;0.30;;;17.10;99.90;;;;;;4900744;29;20407;-90
2022/08/20 05:03:46;;;;;;;0.55;0.43;;;17.20;99.90;;;;;;4897818;29;20056;-89
2022/08/20 05:06:12;;;;;;;0.20;0.20;;;17.20;99.90;;;;;;4851792;29;20075;-89
2022/08/20 05:08:39;;;;;;;0.30;0.10;;;17.20;99.90;;;;;;4881611;29;20599;-89
2022/08/20 05:11:05;;;;;;;;;;;17.20;99.90;;;;;;4851758;29;20059;-89
2022/08/20 05:13:31;;;;;;;0.32;0.25;;;17.20;99.90;;;;;;4897197;29;20009;-88
2022/08/20 05:16:00;;;;;;;0.37;0.37;;;17.20;99.90;;;;;;4882177;29;20196;-89
2022/08/20 05:18:25;;;;;;;0.75;0.28;;;17.20;99.90;;;;;;4866098;29;20795;-89
2022/08/20 05:20:52;;;;;;;0.43;0.22;;;17.20;99.90;;;;;;4881748;29;20060;-88
2022/08/20 05:23:19;;;;;;;0.60;0.38;;;17.20;99.90;;;;;;4882078;29;20045;-89
2022/08/20 05:25:51;;;;;;;0.28;0.15;;;17.20;99.90;;;;;;4881610;29;20092;-88
2022/08/20 05:28:20;;;;;;;0.10;0.10;;;17.20;99.90;;;;;;4897724;29;20047;-89
2022/08/20 05:30:47;;;;;;;0.32;0.20;;;17.20;99.90;;;;;;4899981;29;20076;-88
2022/08/20 05:33:15;;;;;;;0.77;0.22;;;17.10;99.90;;;;;;4899854;29;20060;-89
2022/08/20 05:35:42;;;;;;;0.10;0.10;;;17.20;99.90;;;;;;4884614;29;20131;-89
2022/08/20 05:38:10;;;;;;;;;;;17.10;99.90;;;;;;4885019;29;20084;-89
2022/08/20 05:40:37;;;;;;;1.00;0.47;;;17.10;99.90;;;;;;4899701;29;19923;-89
2022/08/20 05:43:03;;;;;;;0.10;0.10;;;17.10;99.90;;;;;;4900169;29;20055;-89
2022/08/20 05:45:35;;;;;;;;;;;17.10;99.90;;;;;;4900260;29;20048;-89
2022/08/20 05:48:24;;;;;;;0.15;0.15;;;17.10;99.90;;;;;;4900354;29;19974;-88
2022/08/20 05:50:50;;;;;;;0.32;0.20;;;17.20;99.90;;;;;;4900457;29;20054;-89
2022/08/20 05:53:17;;;;;;;0.10;0.10;;;17.20;99.90;;;;;;4868965;29;20143;-89
2022/08/20 05:55:44;;;;;;;0.20;0.08;;;17.30;99.90;;;;;;4899644;29;20102;-89
2022/08/20 05:58:15;;;;;;;;;;;17.40;99.90;;;;;;4900638;29;20051;-88
2022/08/20 06:00:40;;;;;;;1.20;0.40;;;17.50;99.90;;;;;;4898146;29;19939;-89
2022/08/20 06:05:50;;;;;;;0.38;0.28;;;17.70;99.90;;;;;;4886895;29;20051;-89
2022/08/20 06:08:16;;;;;;;0.10;0.10;;;17.70;99.90;;;;;;4884260;29;20123;-88
2022/08/20 06:10:43;;;;;;;0.28;0.17;;;17.70;99.90;;;;;;4899483;29;20383;-89
2022/08/20 06:13:09;;;;;;;0.20;0.10;;;17.70;99.90;;;;;;4899653;29;20087;-89
2022/08/20 06:15:35;;;;;;;;;;;17.70;99.90;;;;;;4899707;29;20044;-88
2022/08/20 06:18:04;;;;;;;0.32;0.15;;;17.60;99.90;;;;;;4899962;29;20001;-88
2022/08/20 06:20:29;;;;;;;0.00;0.00;;;17.60;99.90;;;;;;4882803;29;20047;-88
2022/08/20 06:22:55;;;;;;;0.10;0.10;;;17.70;99.90;;;;;;4868590;29;20158;-89
2022/08/20 06:25:21;;;;;;;0.30;0.30;;;17.80;99.90;;;;;;4868775;29;20347;-88
2022/08/20 06:27:47;;;;;;;0.32;0.30;;;17.90;99.90;;;;;;4883724;29;20647;-89
2022/08/20 06:30:14;;;;;;;0.10;0.05;;;18.10;99.90;;;;;;4915626;29;20040;-90
2022/08/20 06:32:40;;;;;;;0.28;0.20;;;18.20;99.90;;;;;;4897420;29;20385;-90
2022/08/20 06:35:08;;;;;;;0.60;0.30;;;18.30;99.90;;;;;;4868766;29;20055;-89
2022/08/20 06:37:36;;;;;;;0.40;0.20;;;18.40;99.90;;;;;;4883436;29;20055;-89
2022/08/20 06:40:07;;;;;;;0.28;0.25;;;18.40;99.90;;;;;;4868406;29;20044;-89
2022/08/20 06:42:34;;;;;;;0.57;0.35;;;18.50;99.90;;;;;;4883447;29;20088;-90
2022/08/20 06:45:02;;;;;;;;;;;18.40;99.90;;;;;;4900075;29;20088;-89
2022/08/20 06:47:29;;;;;;;0.40;0.40;;;18.40;99.90;;;;;;4899411;29;19923;-90
2022/08/20 06:49:54;;;;;;;0.10;0.10;;;18.50;99.90;;;;;;4883279;29;20052;-89
2022/08/20 06:52:21;;;;;;;0.10;0.10;;;18.70;99.90;;;;;;4899619;29;20062;-89
2022/08/20 06:54:46;;;;;;;0.20;0.20;;;18.80;99.90;;;;;;4883766;29;20052;-89
2022/08/20 06:57:12;;;;;;;0.10;0.10;;;18.90;99.90;;;;;;4858844;29;20151;-90
2022/08/20 06:59:38;;;;;;;0.40;0.35;;;19.00;99.90;;;;;;4895635;29;20051;-90
2022/08/20 07:02:04;;;;;;;0.20;0.17;;;19.10;99.90;;;;;;4865084;29;20049;-89
2022/08/20 07:04:30;;;;;;;0.10;0.10;;;19.10;99.90;;;;;;4880333;29;20057;-90
2022/08/20 07:06:56;;;;;;;0.10;0.10;;;19.00;99.90;;;;;;4864780;29;20045;-89
2022/08/20 07:09:24;;;;;;;0.05;0.05;;;19.00;99.90;;;;;;4865257;29;20103;-89
2022/08/20 07:11:51;;;;;;;0.10;0.10;;;19.20;99.90;;;;;;4880254;29;20049;-89
2022/08/20 07:14:17;;;;;;;;;;;19.20;99.90;;;;;;4865719;29;20079;-89
2022/08/20 07:16:43;;;;;;;0.35;0.35;;;19.20;99.90;;;;;;4879978;29;20330;-90
2022/08/20 07:19:09;;;;;;;0.22;0.22;;;19.20;99.90;;;;;;4864672;29;20052;-89
2022/08/20 07:21:35;;;;;;;0.35;0.20;;;19.30;99.90;;;;;;4868592;29;20071;-91
2022/08/20 07:24:02;;;;;;;0.20;0.17;;;19.40;99.90;;;;;;4880306;29;20178;-90
2022/08/20 07:26:27;;;;;;;0.10;0.10;;;19.60;99.90;;;;;;4895910;29;20056;-90
2022/08/20 07:28:53;;;;;;;0.28;0.20;;;19.90;99.90;;;;;;4864512;29;20055;-89
2022/08/20 07:34:04;;;;;;;0.00;0.00;;;20.20;99.90;;;;;;4902992;29;20446;-90
2022/08/20 07:36:30;;;;;;;0.10;0.10;;;20.20;99.90;;;;;;4902748;29;20092;-90
2022/08/20 07:38:56;;;;;;;0.28;0.03;;;20.30;99.90;;;;;;4886692;29;20048;-90
2022/08/20 07:41:22;;;;;;;0.10;0.10;;;20.40;99.90;;;;;;4902701;29;20138;-90
2022/08/20 07:43:48;;;;;;;1.65;0.10;;;20.50;99.90;;;;;;4886706;29;20139;-90
2022/08/20 07:46:16;;;;;;;0.10;0.10;;;20.70;99.90;;;;;;4901394;29;20095;-90
2022/08/20 07:48:48;;;;;;;0.00;0.00;;;20.90;99.90;;;;;;4902706;29;20043;-90
2022/08/20 07:51:16;;;;;;;0.00;0.00;;;21.00;99.90;;;;;;4902416;29;20048;-89
2022/08/20 07:53:43;;;;;;;1.38;0.30;;;21.20;99.90;;;;;;4901918;29;20048;-90
2022/08/20 07:56:13;;;;;;;0.05;0.00;;;21.20;99.90;;;;;;4886640;29;20048;-89
2022/08/20 07:58:48;;;;;;;0.50;0.30;;;21.10;99.90;;;;;;4886198;29;20048;-90
2022/08/20 08:01:27;;;;;;;0.00;0.00;;;21.00;99.90;;;;;;4886524;29;20099;-89
2022/08/20 08:03:53;;;;;;;0.20;0.20;;;21.00;99.90;;;;;;4901955;29;20055;-90
2022/08/20 08:06:21;;;;;;;0.00;0.00;;;21.10;99.90;;;;;;4886677;29;20056;-89
2022/08/20 08:08:47;;;;;;;1.17;0.20;;;21.30;99.90;;;;;;4901705;29;20388;-89
2022/08/20 08:11:13;;;;;;;0.00;0.00;;;21.40;99.90;;;;;;4902107;29;20048;-89
2022/08/20 08:13:41;;;;;;;0.10;0.10;;;21.50;99.90;;;;;;4870335;29;20443;-89
2022/08/20 08:16:08;;;;;;;0.10;0.10;;;21.60;99.90;;;;;;4871018;29;20055;-89
2022/08/20 08:18:55;;;;;;;0.10;0.10;;;21.70;99.90;;;;;;4902071;29;20109;-90
2022/08/20 08:21:21;;;;;;;0.00;0.00;;;21.80;99.90;;;;;;4901470;29;20076;-90
2022/08/20 08:23:46;;;;;;;0.35;0.10;;;21.90;99.90;;;;;;4885712;29;20040;-89
2022/08/20 08:26:14;;;;;;;0.28;0.10;;;22.00;99.90;;;;;;4886441;29;20044;-90
2022/08/20 08:28:43;;;;;;;0.08;0.08;;;22.20;99.90;;;;;;4901896;29;20099;-90
2022/08/20 08:31:09;;;;;;;0.10;0.08;;;22.20;99.90;;;;;;4885986;29;20056;-90
2022/08/20 08:33:34;;;;;;;0.20;0.08;;;22.20;99.90;;;;;;4886025;29;20048;-90
2022/08/20 08:36:08;;;;;;;0.10;0.10;;;22.30;99.90;;;;;;4885553;29;20055;-89
2022/08/20 08:38:37;;;;;;;0.20;0.20;;;22.10;99.90;;;;;;4899797;29;20056;-90
2022/08/20 08:41:21;;;;;;;0.00;0.00;;;22.40;99.90;;;;;;4883863;29;20115;-90
2022/08/20 08:43:52;;;;;;;0.00;0.00;;;22.50;99.90;;;;;;4900315;29;20135;-90
2022/08/20 08:46:23;;;;;;;0.10;0.10;;;22.50;99.90;;;;;;4885936;29;20104;-90
2022/08/20 08:48:52;;;;;;;0.08;0.05;;;22.60;99.90;;;;;;4900934;29;20040;-90
2022/08/20 08:51:28;;;;;;;0.15;0.00;;;22.70;99.90;;;;;;4901302;29;20044;-90
2022/08/20 08:53:55;;;;;;;0.08;0.08;;;22.90;99.90;;;;;;4885401;29;20052;-90
2022/08/20 08:56:27;;;;;;;0.10;0.05;;;23.00;99.90;;;;;;4901252;29;20051;-90
2022/08/20 08:58:59;;;;;;;0.10;0.10;;;23.10;99.90;;;;;;4900667;29;20420;-90
2022/08/20 09:01:25;;;;;;;0.00;0.00;;;23.00;99.90;;;;;;4885478;29;20142;-90
2022/08/20 09:03:51;;;;;;;0.00;0.00;;;23.00;99.90;;;;;;4899566;29;20525;-90
2022/08/20 09:06:21;;;;;;;0.20;0.20;;;22.90;99.90;;;;;;4900528;29;20043;-90
2022/08/20 09:08:53;;;;;;;0.00;0.00;;;23.00;99.90;;;;;;4884949;29;20055;-91
2022/08/20 09:11:21;;;;;;;0.00;0.00;;;23.10;99.90;;;;;;4885265;29;20052;-90
2022/08/20 09:13:48;;;;;;;0.00;0.00;;;23.00;99.90;;;;;;4900656;29;20103;-91
2022/08/20 09:16:14;;;;;;;0.05;0.05;;;23.10;99.90;;;;;;4885282;29;20062;-90
2022/08/20 09:18:40;;;;;;;0.10;0.10;;;23.10;99.90;;;;;;4885371;29;20044;-90
2022/08/20 09:21:07;;;;;;;0.00;0.00;;;23.00;99.90;;;;;;4900303;29;20384;-90
2022/08/20 09:23:33;;;;;;;0.10;0.10;;;23.00;99.90;;;;;;4869679;29;20055;-89
2022/08/20 09:25:59;;;;;;;0.00;0.00;;;23.10;99.90;;;;;;4884767;29;20084;-90
2022/08/20 09:28:25;;;;;;;0.00;0.00;;;23.10;99.90;;;;;;4885156;29;20090;-90
2022/08/20 09:30:51;;;;;;;0.20;0.10;;;23.10;99.90;;;;;;4879946;29;20056;-90
2022/08/20 09:33:17;;;;;;;0.08;0.08;;;23.00;99.90;;;;;;4897363;29;20139;-90
2022/08/20 09:35:44;;;;;;;0.00;0.00;;;23.10;99.90;;;;;;4866408;29;20048;-90
2022/08/20 09:38:10;;;;;;;0.00;0.00;;;23.20;99.90;;;;;;4896827;29;20056;-90
2022/08/20 09:40:36;;;;;;;;;;;23.10;99.90;;;;;;4897334;29;20044;-89
2022/08/20 09:43:05;;;;;;;0.13;0.10;;;23.00;99.90;;;;;;4896869;29;19927;-90
2022/08/20 09:45:31;;;;;;;0.00;0.00;;;23.10;99.90;;;;;;4881670;29;20559;-90
2022/08/20 09:47:57;;;;;;;0.00;0.00;;;23.10;99.90;;;;;;4881357;29;20048;-90
2022/08/20 09:50:27;;;;;;;0.03;0.03;;;23.20;99.90;;;;;;4881554;29;20184;-90
2022/08/20 09:52:56;;;;;;;0.00;0.00;;;23.20;99.90;;;;;;4880975;29;20052;-90
2022/08/20 09:55:37;;;;;;;0.10;0.10;;;23.20;99.90;;;;;;4896005;29;20566;-90
2022/08/20 09:58:13;;;;;;;0.00;0.00;;;23.30;99.90;;;;;;4893595;29;20167;-90
2022/08/20 10:00:39;;;;;;;0.10;0.00;;;23.30;99.90;;;;;;4893707;29;20105;-90
2022/08/20 10:03:05;;;;;;;;;;;23.20;99.90;;;;;;4878176;29;20049;-90
2022/08/20 10:05:30;;;;;;;0.00;0.00;;;23.10;99.90;;;;;;4878340;29;19930;-90
2022/08/20 10:07:56;;;;;;;0.05;0.05;;;23.20;99.90;;;;;;4877530;29;20408;-90
2022/08/20 10:10:22;;;;;;;0.10;0.00;;;23.20;99.90;;;;;;4893646;29;20049;-89
2022/08/20 10:12:48;;;;;;;0.00;0.00;;;23.20;99.90;;;;;;4862887;29;20088;-90
2022/08/20 10:15:13;;;;;;;1.00;0.10;;;23.20;99.90;;;;;;4893307;29;20056;-90
2022/08/20 10:17:41;;;;;;;0.00;0.00;;;23.20;99.90;;;;;;4893602;29;20053;-89
2022/08/20 10:20:09;;;;;;;0.00;0.00;;;23.10;99.90;;;;;;4892878;29;20511;-89
2022/08/20 10:22:35;;;;;;;0.08;0.08;;;23.30;99.90;;;;;;4907996;29;20052;-89
2022/08/20 10:25:01;;;;;;;0.03;0.03;;;23.30;99.90;;;;;;4896201;29;20056;-90
2022/08/20 10:27:27;;;;;;;0.00;0.00;;;23.50;99.90;;;;;;4880897;29;20388;-90
2022/08/20 10:29:52;;;;;;;0.00;0.00;;;23.50;99.90;;;;;;4865773;29;20052;-90
2022/08/20 10:32:18;;;;;;;0.10;0.05;;;23.40;99.90;;;;;;4867942;29;20430;-90
2022/08/20 10:34:45;;;;;;;0.10;0.10;;;23.50;99.90;;;;;;4868450;29;20066;-90
2022/08/20 10:37:21;;;;;;;0.15;0.10;;;23.50;99.90;;;;;;4867934;29;20048;-89
2022/08/20 10:39:47;;;;;;;0.00;0.00;;;23.60;99.90;;;;;;4883765;29;20044;-89
2022/08/20 10:42:13;;;;;;;0.00;0.00;;;23.50;99.90;;;;;;4899191;29;20058;-89
2022/08/20 10:44:39;;;;;;;;;;;23.50;99.90;;;;;;4884231;29;20087;-89
2022/08/20 10:47:15;;;;;;;0.20;0.05;;;23.60;99.10;;;;;;4880490;29;19989;-90
2022/08/20 10:49:41;;;;;;;;;;;23.70;99.90;;;;;;4882936;29;20060;-89
2022/08/20 10:52:06;;;;;;;0.05;0.05;;;23.80;97.80;;;;;;4898817;29;20285;-90
2022/08/20 10:54:32;;;;;;;0.10;0.10;;;24.00;99.90;;;;;;4883762;29;20084;-90
2022/08/20 10:57:02;;;;;;;0.00;0.00;;;24.00;99.90;;;;;;4868536;29;20052;-90
2022/08/20 10:59:28;;;;;;;0.10;0.10;;;23.90;99.90;;;;;;4899200;29;20044;-90
2022/08/20 11:01:54;;;;;;;0.10;0.10;;;23.70;99.90;;;;;;4899288;29;20091;-90
2022/08/20 11:04:20;;;;;;;0.10;0.10;;;23.50;99.90;;;;;;4883414;29;20507;-90
2022/08/20 11:06:45;;;;;;;0.10;0.10;;;23.50;99.90;;;;;;4885883;29;20075;-90
2022/08/20 11:09:11;;;;;;;0.20;0.20;;;23.50;99.90;;;;;;4902756;29;20411;-90
2022/08/20 11:11:37;;;;;;;0.10;0.10;;;23.60;99.90;;;;;;4869340;29;20055;-90
2022/08/20 11:14:02;;;;;;;0.05;0.05;;;23.60;99.90;;;;;;4885703;29;20055;-91
2022/08/20 11:16:29;;;;;;;0.00;0.00;;;23.60;99.90;;;;;;4887498;29;20048;-90
2022/08/20 11:18:55;;;;;;;0.20;0.10;;;23.60;99.90;;;;;;4887198;29;20044;-91
2022/08/20 11:21:20;;;;;;;0.13;0.13;;;23.70;99.90;;;;;;4886724;29;20051;-91
2022/08/20 11:23:46;;;;;;;0.17;0.17;;;23.70;98.10;;;;;;4887184;29;20055;-91
2022/08/20 11:26:20;;;;;;;0.13;0.13;;;23.90;99.90;;;;;;4902368;29;20062;-90
2022/08/20 11:28:46;;;;;;;0.25;0.20;;;23.90;95.70;;;;;;4903179;29;20047;-90
2022/08/20 11:31:12;;;;;;;0.10;0.10;;;23.90;99.90;;;;;;4918955;29;20505;-90
2022/08/20 11:33:37;;;;;;;0.20;0.20;;;24.00;99.90;;;;;;4886952;29;20052;-91
2022/08/20 11:36:04;;;;;;;0.13;0.13;;;24.20;99.90;;;;;;4871670;29;20040;-90
2022/08/20 11:38:29;;;;;;;;;;;24.30;99.90;;;;;;4869412;29;20127;-90
2022/08/20 11:40:55;;;;;;;0.10;0.10;;;24.40;93.50;;;;;;4885428;29;20019;-91
2022/08/20 11:43:21;;;;;;;0.43;0.20;;;24.50;99.00;;;;;;4902123;29;20051;-91
2022/08/20 11:45:50;;;;;;;0.10;0.10;;;24.40;99.90;;;;;;4886867;29;20407;-90
2022/08/20 11:48:16;;;;;;;0.10;0.10;;;24.40;92.30;;;;;;4901951;29;20056;-91
2022/08/20 11:50:42;;;;;;;0.75;0.20;;;24.30;99.90;;;;;;4871401;29;20044;-91
2022/08/20 11:53:08;;;;;;;0.10;0.10;;;24.40;99.90;;;;;;4886618;29;20058;-91
2022/08/20 11:55:34;;;;;;;0.10;0.10;;;24.40;99.90;;;;;;4871186;29;20051;-91
2022/08/20 11:58:00;;;;;;;;;;;24.60;99.90;;;;;;4887185;29;20052;-91
2022/08/20 12:00:26;;;;;;;0.10;0.10;;;24.70;88.20;;;;;;4901544;29;19923;-91
2022/08/20 12:02:52;;;;;;;0.10;0.10;;;24.80;96.60;;;;;;4882814;29;20052;-91
2022/08/20 12:05:18;;;;;;;0.00;0.00;;;24.90;99.10;;;;;;4869666;29;20048;-91
2022/08/20 12:07:44;;;;;;;0.10;0.10;;;25.10;99.80;;;;;;4901041;29;20139;-91
2022/08/20 12:10:10;;;;;;;0.00;0.00;;;25.00;99.40;;;;;;4901148;29;20131;-92
2022/08/20 12:12:40;;;;;;;0.17;0.17;;;24.90;95.00;;;;;;4901654;29;20455;-91
2022/08/20 12:15:08;;;;;;;0.10;0.10;;;24.90;99.90;;;;;;4902001;29;20059;-91
2022/08/20 12:17:34;;;;;;;0.00;0.00;;;25.10;97.80;;;;;;4884994;29;20052;-91
2022/08/20 12:20:01;;;;;;;;;;;25.10;96.80;;;;;;4886729;29;20094;-91
2022/08/20 12:22:27;;;;;;;0.20;0.20;;;25.30;88.20;;;;;;4901488;29;19923;-91
2022/08/20 12:24:54;;;;;;;0.20;0.20;;;25.50;99.10;;;;;;4901658;29;20129;-91
2022/08/20 12:27:26;;;;;;;0.43;0.10;;;25.50;99.50;;;;;;4885662;29;20114;-91
2022/08/20 12:29:54;;;;;;;0.43;0.20;;;25.60;93.90;;;;;;4884186;29;20059;-91
2022/08/20 12:32:22;;;;;;;0.10;0.10;;;25.40;99.90;;;;;;4900871;29;20052;-91
2022/08/20 12:34:48;;;;;;;0.22;0.10;;;25.20;99.50;;;;;;4886074;29;20088;-91
2022/08/20 12:37:17;;;;;;;0.10;0.05;;;24.90;99.90;;;;;;4870120;29;20083;-91
2022/08/20 12:39:46;;;;;;;0.00;0.00;;;24.70;86.80;;;;;;4885809;29;20138;-91
2022/08/20 12:42:13;;;;;;;0.10;0.10;;;24.80;99.50;;;;;;4885650;29;20081;-91
2022/08/20 12:44:39;;;;;;;0.00;0.00;;;25.00;99.90;;;;;;4886033;29;20063;-92
2022/08/20 12:47:11;;;;;;;0.03;0.03;;;25.10;98.60;;;;;;4886116;29;20040;-92
2022/08/20 12:49:38;;;;;;;0.15;0.15;;;25.30;98.90;;;;;;4901288;29;20515;-91
2022/08/20 12:52:04;;;;;;;0.00;0.00;;;25.50;98.60;;;;;;4885658;29;20084;-91
2022/08/20 12:54:30;;;;;;;0.20;0.00;;;25.60;92.90;;;;;;4868381;29;20464;-92
2022/08/20 12:56:55;;;;;;;;;;;25.60;96.60;;;;;;4885227;29;20131;-91
2022/08/20 12:59:23;;;;;;;0.40;0.40;;;25.50;81.90;;;;;;4885147;29;19938;-93
2022/08/20 13:01:49;;;;;;;0.10;0.10;;;25.40;96.30;;;;;;4900960;29;20059;-91